Buel, New York
Current Conditions -  °F | °C
As of 10:35 PM on Sunday 21 Dec 2014 (Local Time) from KNY0 Reporting Station
Overcast Overcast  
Wind Chill: 28°   Ceiling: 2900
Heat Index: 28°   Visibility: 10mi
Dew Point: 22°   Wind: 0mph
Humidity: 79%   Direction: NA
Pressure: 30.34"   Gusts: NA
Location:  42.8548°N, 74.5942°W
Report Text: KNY0 220335Z AUTO 00000KT 10SM OVC029 M02/M06 A3034 RMK AO2 T10251057
Loading
Personal Weather Stations






























Interactive Weather Map New forecast layout! Learn more

10-Day Weather Forecast

Advertisements
Track Severe Weather on mobile